createdAt,value
2022-09-03T00:02:18.971Z,8.57
2022-09-03T00:05:25.408Z,4.22
2022-09-03T00:08:33.378Z,4.75
2022-09-03T00:11:28.674Z,4.07
2022-09-03T00:14:23.136Z,7.22
2022-09-03T00:17:19.617Z,6.30
2022-09-03T00:20:28.705Z,6.28
2022-09-03T00:23:24.662Z,4.03
2022-09-03T00:26:12.377Z,5.10
2022-09-03T00:29:05.719Z,5.72
2022-09-03T00:32:09.660Z,3.53
2022-09-03T00:35:02.966Z,5.93
2022-09-03T00:37:54.276Z,7.20
2022-09-03T00:40:56.961Z,5.15
2022-09-03T00:44:07.932Z,5.05
2022-09-03T00:47:13.454Z,8.70
2022-09-03T00:50:31.839Z,6.15
2022-09-03T00:53:38.714Z,7.72
2022-09-03T00:57:11.212Z,4.47
2022-09-03T01:00:09.232Z,5.25
2022-09-03T01:03:12.466Z,5.20
2022-09-03T01:06:15.705Z,4.57
2022-09-03T01:09:23.933Z,6.18
2022-09-03T01:12:30.245Z,4.40
2022-09-03T01:15:30.045Z,6.20
2022-09-03T01:18:49.411Z,7.25
2022-09-03T01:21:58.601Z,3.45
2022-09-03T01:25:12.096Z,5.07
2022-09-03T01:28:26.628Z,8.30
2022-09-03T01:31:42.740Z,5.10
2022-09-03T01:34:53.818Z,6.50
2022-09-03T01:38:01.555Z,4.45
2022-09-03T01:41:27.287Z,8.45
2022-09-03T01:44:22.160Z,7.07
2022-09-03T01:47:17.050Z,4.40
2022-09-03T01:50:20.514Z,5.28
2022-09-03T01:53:28.650Z,12.43
2022-09-03T01:56:37.713Z,3.50
2022-09-03T01:59:54.488Z,4.38
2022-09-03T02:02:50.757Z,6.50
2022-09-03T02:05:40.765Z,6.60
2022-09-03T02:08:29.718Z,4.13
2022-09-03T02:11:17.249Z,5.57
2022-09-03T02:14:04.777Z,4.43
2022-09-03T02:16:52.746Z,6.07
2022-09-03T02:19:40.087Z,8.75
2022-09-03T02:22:27.406Z,4.05
2022-09-03T02:25:18.982Z,8.05
2022-09-03T02:28:27.439Z,3.60
2022-09-03T02:31:14.904Z,5.77
2022-09-03T02:34:06.389Z,4.30
2022-09-03T02:36:54.504Z,3.45
2022-09-03T02:39:42.332Z,6.78
2022-09-03T02:42:32.841Z,7.53
2022-09-03T02:45:45.053Z,4.97
2022-09-03T02:48:33.734Z,6.13
2022-09-03T02:51:21.529Z,3.73
2022-09-03T02:54:10.686Z,4.40
2022-09-03T02:56:57.981Z,4.90
2022-09-03T02:59:45.653Z,9.65
2022-09-03T03:02:34.984Z,7.97
2022-09-03T03:05:29.023Z,4.18
2022-09-03T03:08:21.186Z,3.47
2022-09-03T03:11:08.730Z,4.80
2022-09-03T03:13:56.079Z,4.15
2022-09-03T03:16:43.620Z,3.13
2022-09-03T03:19:32.686Z,4.05
2022-09-03T03:22:20.284Z,6.13
2022-09-03T03:25:10.859Z,3.30
2022-09-03T03:27:58.409Z,5.38
2022-09-03T03:30:48.584Z,4.45
2022-09-03T03:33:36.222Z,3.42
2022-09-03T03:36:26.717Z,3.20
2022-09-03T03:39:14.168Z,4.18
2022-09-03T03:42:01.450Z,4.55
2022-09-03T03:44:48.767Z,2.97
2022-09-03T03:47:37.399Z,3.03
2022-09-03T03:50:27.813Z,4.47
2022-09-03T03:53:15.174Z,7.60
2022-09-03T03:56:05.056Z,3.08
2022-09-03T03:58:53.247Z,5.22
2022-09-03T04:01:41.893Z,4.00
2022-09-03T04:04:29.185Z,3.43
2022-09-03T04:07:16.475Z,3.30
2022-09-03T04:10:04.143Z,4.90
2022-09-03T04:12:54.567Z,5.07
2022-09-03T04:15:42.662Z,4.50
2022-09-03T04:18:31.963Z,4.55
2022-09-03T04:21:24.678Z,3.38
2022-09-03T04:24:14.018Z,3.58
2022-09-03T04:27:01.798Z,2.40
2022-09-03T04:29:49.321Z,2.55
2022-09-03T04:32:56.710Z,3.22
2022-09-03T04:35:46.934Z,6.30
2022-09-03T04:38:38.650Z,4.50
2022-09-03T04:41:29.647Z,5.65
2022-09-03T04:44:20.672Z,4.13
2022-09-03T04:47:08.025Z,5.38
2022-09-03T04:49:55.442Z,6.50
2022-09-03T04:52:42.762Z,4.35
2022-09-03T04:55:38.049Z,3.10
2022-09-03T04:58:25.410Z,3.78
2022-09-03T05:01:21.498Z,3.25
2022-09-03T05:04:09.457Z,2.28
2022-09-03T05:06:56.805Z,2.25
2022-09-03T05:09:44.077Z,2.78
2022-09-03T05:12:34.673Z,4.05
2022-09-03T05:15:21.958Z,3.38
2022-09-03T05:18:10.945Z,3.40
2022-09-03T05:21:18.868Z,3.83
2022-09-03T05:24:06.233Z,2.58
2022-09-03T05:26:55.893Z,6.43
2022-09-03T05:29:45.277Z,3.85
2022-09-03T05:32:35.590Z,2.88
2022-09-03T05:35:30.150Z,5.28
2022-09-03T05:38:17.900Z,2.78
2022-09-03T05:41:10.682Z,6.57
2022-09-03T05:44:02.134Z,4.60
2022-09-03T05:46:51.461Z,2.05
2022-09-03T05:49:42.664Z,3.70
2022-09-03T05:52:32.962Z,7.90
2022-09-03T05:55:20.307Z,3.20
2022-09-03T05:58:08.679Z,1.58
2022-09-03T06:00:59.600Z,3.80
2022-09-03T06:03:53.542Z,2.78
2022-09-03T06:06:47.086Z,2.72
2022-09-03T06:09:37.300Z,3.42
2022-09-03T06:12:24.883Z,5.22
2022-09-03T06:15:15.468Z,2.85
2022-09-03T06:18:06.586Z,5.93
2022-09-03T06:20:57.720Z,4.95
2022-09-03T06:23:52.900Z,4.40
2022-09-03T06:26:43.804Z,3.95
2022-09-03T06:29:35.507Z,5.15
2022-09-03T06:32:25.703Z,4.03
2022-09-03T06:35:19.001Z,2.58
2022-09-03T06:38:06.575Z,3.58
2022-09-03T06:41:02.141Z,3.10
2022-09-03T06:44:11.348Z,5.55
2022-09-03T06:47:01.862Z,4.60
2022-09-03T06:49:49.973Z,3.72
2022-09-03T06:52:37.315Z,2.70
2022-09-03T06:55:27.710Z,4.25
2022-09-03T06:58:16.937Z,5.00
2022-09-03T07:01:12.887Z,3.72
2022-09-03T07:04:03.482Z,5.93
2022-09-03T07:06:50.855Z,3.10
2022-09-03T07:09:39.792Z,4.22
2022-09-03T07:12:27.294Z,6.60
2022-09-03T07:15:16.183Z,4.75
2022-09-03T07:18:07.552Z,3.70
2022-09-03T07:21:06.027Z,2.08
2022-09-03T07:23:55.882Z,4.32
2022-09-03T07:26:50.765Z,6.80
2022-09-03T07:29:38.070Z,6.50
2022-09-03T07:32:25.394Z,4.97
2022-09-03T07:35:13.698Z,4.53
2022-09-03T07:38:00.921Z,5.30
2022-09-03T07:40:48.151Z,4.55
2022-09-03T07:43:43.610Z,3.40
2022-09-03T07:46:33.903Z,4.47
2022-09-03T07:49:21.850Z,3.45
2022-09-03T07:52:12.199Z,2.65
2022-09-03T07:55:02.921Z,4.57
2022-09-03T07:57:50.226Z,5.32
2022-09-03T08:00:37.549Z,4.47
2022-09-03T08:03:25.205Z,6.47
2022-09-03T08:06:13.708Z,6.90
2022-09-03T08:09:05.658Z,4.20
2022-09-03T08:11:53.095Z,6.72
2022-09-03T08:14:40.361Z,8.48
2022-09-03T08:17:27.693Z,6.53
2022-09-03T08:20:15.926Z,6.68
2022-09-03T08:23:03.511Z,6.63
2022-09-03T08:26:01.312Z,5.55
2022-09-03T08:28:49.246Z,4.78
2022-09-03T08:31:37.050Z,5.13
2022-09-03T08:34:24.955Z,3.92
2022-09-03T08:37:13.046Z,5.38
2022-09-03T08:40:00.417Z,3.58
2022-09-03T08:43:17.265Z,3.13
2022-09-03T08:46:04.700Z,5.03
2022-09-03T08:48:53.104Z,5.80
2022-09-03T08:51:44.045Z,8.10
2022-09-03T08:54:32.815Z,5.95
2022-09-03T08:57:21.825Z,4.43
2022-09-03T09:00:09.577Z,6.40
2022-09-03T09:03:09.912Z,7.80
2022-09-03T09:06:16.848Z,7.82
2022-09-03T09:09:28.508Z,4.70
2022-09-03T09:12:28.721Z,7.13
2022-09-03T09:15:36.467Z,5.97
2022-09-03T09:18:37.157Z,9.00
2022-09-03T09:21:30.002Z,6.65
2022-09-03T09:24:26.354Z,8.88
2022-09-03T09:27:17.202Z,3.22
2022-09-03T09:30:06.341Z,5.22
2022-09-03T09:32:53.573Z,5.63
2022-09-03T09:35:42.946Z,4.95
2022-09-03T09:38:32.793Z,5.60
2022-09-03T09:41:28.990Z,8.80
2022-09-03T09:44:21.019Z,9.43
2022-09-03T09:47:31.591Z,6.90
2022-09-03T09:50:26.090Z,6.70
2022-09-03T09:53:17.825Z,6.60
2022-09-03T09:56:05.689Z,6.65
2022-09-03T09:59:07.529Z,6.78
2022-09-03T10:02:07.689Z,6.35
2022-09-03T10:05:02.277Z,8.50
2022-09-03T10:07:56.457Z,8.20
2022-09-03T10:10:50.835Z,7.05
2022-09-03T10:13:43.843Z,8.50
2022-09-03T10:16:36.523Z,4.82
2022-09-03T10:19:34.538Z,4.13
2022-09-03T10:22:23.230Z,6.05
2022-09-03T10:25:10.862Z,6.68
2022-09-03T10:28:02.879Z,6.72
2022-09-03T10:31:29.813Z,6.05
2022-09-03T10:34:37.111Z,12.32
2022-09-03T10:38:03.133Z,5.88
2022-09-03T10:41:21.209Z,4.60
2022-09-03T10:44:22.914Z,4.60
2022-09-03T10:47:37.740Z,11.27
2022-09-03T10:50:34.170Z,6.65
2022-09-03T10:53:34.888Z,8.25
2022-09-03T10:56:34.041Z,7.65
2022-09-03T10:59:47.978Z,9.68
2022-09-03T11:03:03.172Z,7.47
2022-09-03T11:05:57.413Z,6.78
2022-09-03T11:08:51.541Z,7.40
2022-09-03T11:11:45.109Z,7.72
2022-09-03T11:14:44.496Z,4.80
2022-09-03T11:20:27.369Z,4.30
2022-09-03T11:23:16.301Z,6.07
2022-09-03T11:26:08.869Z,6.28
2022-09-03T11:29:43.444Z,8.13
2022-09-03T11:32:36.447Z,8.52
2022-09-03T11:35:32.712Z,7.65
2022-09-03T11:38:24.560Z,4.20
2022-09-03T11:41:15.673Z,6.88
2022-09-03T11:44:18.764Z,6.55
2022-09-03T11:47:37.765Z,6.03
2022-09-03T11:50:30.742Z,7.60
2022-09-03T11:53:28.158Z,5.88
2022-09-03T11:56:19.553Z,9.05
2022-09-03T11:59:13.630Z,3.38
2022-09-03T12:02:06.214Z,9.32
2022-09-03T12:05:08.817Z,10.38
2022-09-03T12:08:15.737Z,5.35
2022-09-03T12:11:24.948Z,8.68
2022-09-03T12:14:41.616Z,5.93
2022-09-03T12:17:47.755Z,7.78
2022-09-03T12:20:35.025Z,9.63
2022-09-03T12:23:34.357Z,5.82
2022-09-03T12:26:24.682Z,6.88
2022-09-03T12:29:27.985Z,6.80
2022-09-03T12:32:16.043Z,4.80
2022-09-03T12:38:40.657Z,7.30
2022-09-03T12:41:32.454Z,5.80
2022-09-03T12:44:32.336Z,7.80
2022-09-03T12:47:38.807Z,9.85
2022-09-03T12:50:27.152Z,7.72
2022-09-03T12:53:21.725Z,7.03
2022-09-03T12:56:11.036Z,6.93
2022-09-03T13:01:58.594Z,8.95
2022-09-03T13:04:47.140Z,12.65
2022-09-03T13:07:38.194Z,20.73
2022-09-03T13:10:38.368Z,18.25
2022-09-03T13:13:28.272Z,10.05
2022-09-03T13:16:30.914Z,18.85
2022-09-03T13:19:58.337Z,5.88
2022-09-03T13:23:01.102Z,6.18
2022-09-03T13:26:16.201Z,8.35
2022-09-03T13:29:24.347Z,5.80
2022-09-03T13:32:26.479Z,6.53
2022-09-03T13:35:32.296Z,6.32
2022-09-03T13:39:06.316Z,7.35
2022-09-03T13:42:26.292Z,7.15
2022-09-03T13:45:26.771Z,7.15
2022-09-03T13:48:39.807Z,6.80
2022-09-03T13:51:29.815Z,6.85
2022-09-03T13:54:48.229Z,7.18
2022-09-03T13:57:46.202Z,8.30
2022-09-03T14:00:44.332Z,6.78
2022-09-03T14:03:34.583Z,5.75
2022-09-03T14:06:27.969Z,7.75
2022-09-03T14:09:18.187Z,5.05
2022-09-03T14:12:23.769Z,6.18
2022-09-03T14:15:17.980Z,9.60
2022-09-03T14:18:24.104Z,8.27
2022-09-03T14:21:24.700Z,6.88
2022-09-03T14:24:15.317Z,4.03
2022-09-03T14:27:04.589Z,5.75
2022-09-03T14:29:58.617Z,4.75
2022-09-03T14:32:56.961Z,7.47
2022-09-03T14:36:04.655Z,5.38
2022-09-03T14:39:18.251Z,7.75
2022-09-03T14:42:31.626Z,5.50
2022-09-03T14:45:34.327Z,8.07
2022-09-03T14:48:47.256Z,4.68
2022-09-03T14:52:03.431Z,5.93
2022-09-03T14:55:15.148Z,6.57
2022-09-03T14:58:14.493Z,5.18
2022-09-03T15:04:03.240Z,7.88
2022-09-03T15:07:05.598Z,7.82
2022-09-03T15:10:21.705Z,6.13
2022-09-03T15:13:32.371Z,5.55
2022-09-03T15:16:47.772Z,6.85
2022-09-03T15:19:55.836Z,5.15
2022-09-03T15:23:01.664Z,4.03
2022-09-03T15:26:08.398Z,9.90
2022-09-03T15:29:11.523Z,5.22
2022-09-03T15:32:08.147Z,7.55
2022-09-03T15:35:07.689Z,5.45
2022-09-03T15:40:45.392Z,6.80
2022-09-03T15:43:34.246Z,6.55
2022-09-03T15:46:41.637Z,5.82
2022-09-03T15:50:10.764Z,5.70
2022-09-03T15:53:04.985Z,4.57
2022-09-03T15:56:30.017Z,4.53
2022-09-03T15:59:32.961Z,5.38
2022-09-03T16:02:31.730Z,5.30
2022-09-03T16:05:35.154Z,7.65
2022-09-03T16:08:43.561Z,5.45
2022-09-03T16:11:52.052Z,9.60
2022-09-03T16:14:46.815Z,7.13
2022-09-03T16:17:39.414Z,5.97
2022-09-03T16:20:57.070Z,4.60
2022-09-03T16:24:05.679Z,8.80
2022-09-03T16:27:03.088Z,9.55
2022-09-03T16:30:13.941Z,9.43
2022-09-03T16:33:28.174Z,11.82
2022-09-03T16:36:39.672Z,14.00
2022-09-03T16:40:06.160Z,21.17
2022-09-03T16:43:13.372Z,16.77
2022-09-03T16:46:21.628Z,18.48
2022-09-03T16:49:38.495Z,11.33
2022-09-03T16:52:59.197Z,11.52
2022-09-03T16:55:57.255Z,7.82
2022-09-03T16:58:52.773Z,5.57
2022-09-03T17:01:57.498Z,9.40
2022-09-03T17:05:12.508Z,8.98
2022-09-03T17:08:14.401Z,8.63
2022-09-03T17:11:11.731Z,8.88
2022-09-03T17:14:43.924Z,5.68
2022-09-03T17:17:57.233Z,9.80
2022-09-03T17:21:27.273Z,6.30
2022-09-03T17:24:37.571Z,12.57
2022-09-03T17:27:50.332Z,6.63
2022-09-03T17:31:10.237Z,5.28
2022-09-03T17:34:33.096Z,10.95
2022-09-03T17:38:01.516Z,7.90
2022-09-03T17:41:19.732Z,8.70
2022-09-03T17:44:23.800Z,8.25
2022-09-03T17:47:32.740Z,8.85
2022-09-03T17:50:25.985Z,12.95
2022-09-03T17:53:19.677Z,9.88
2022-09-03T17:56:20.628Z,5.18
2022-09-03T17:59:10.509Z,6.65
2022-09-03T18:02:07.878Z,6.85
2022-09-03T18:05:04.687Z,5.50
2022-09-03T18:08:20.056Z,7.40
2022-09-03T18:11:11.896Z,6.80
2022-09-03T18:14:05.290Z,4.97
2022-09-03T18:17:06.560Z,5.68
2022-09-03T18:20:23.843Z,7.10
2022-09-03T18:23:39.046Z,7.07
2022-09-03T18:26:50.885Z,8.80
2022-09-03T18:30:07.157Z,7.05
2022-09-03T18:33:13.021Z,7.10
2022-09-03T18:36:18.530Z,8.50
2022-09-03T18:39:34.858Z,8.45
2022-09-03T18:43:10.071Z,7.28
2022-09-03T18:50:16.605Z,8.30
2022-09-03T18:53:33.089Z,9.63
2022-09-03T18:56:55.563Z,8.82
2022-09-03T19:00:09.352Z,9.93
2022-09-03T19:03:28.774Z,8.02
2022-09-03T19:10:04.027Z,8.43
2022-09-03T19:13:26.285Z,10.23
2022-09-03T19:16:52.381Z,8.32
2022-09-03T19:20:19.462Z,7.68
2022-09-03T19:23:25.263Z,7.80
2022-09-03T19:26:50.529Z,9.20
2022-09-03T19:30:26.677Z,6.70
2022-09-03T19:33:57.240Z,7.28
2022-09-03T19:37:28.372Z,7.97
2022-09-03T19:40:57.301Z,7.82
2022-09-03T19:44:39.094Z,9.27
2022-09-03T19:48:11.310Z,5.47
2022-09-03T19:51:50.533Z,10.60
2022-09-03T19:54:57.845Z,10.52
2022-09-03T19:58:25.892Z,10.07
2022-09-03T20:01:36.023Z,9.73
2022-09-03T20:05:02.900Z,9.95
2022-09-03T20:08:13.194Z,8.73
2022-09-03T20:11:02.257Z,11.15
2022-09-03T20:14:08.884Z,7.72
2022-09-03T20:17:26.833Z,10.88
2022-09-03T20:20:44.613Z,9.85
2022-09-03T20:23:50.800Z,10.95
2022-09-03T20:27:09.473Z,9.25
2022-09-03T20:30:04.005Z,7.57
2022-09-03T20:33:12.478Z,10.07
2022-09-03T20:39:25.345Z,12.23
2022-09-03T20:42:40.690Z,13.05
2022-09-03T20:45:44.500Z,7.40
2022-09-03T20:49:15.183Z,8.35
2022-09-03T20:52:08.313Z,7.63
2022-09-03T20:55:11.199Z,10.23
2022-09-03T20:58:14.834Z,8.80
2022-09-03T21:01:22.588Z,10.07
2022-09-03T21:04:38.271Z,8.70
2022-09-03T21:07:43.097Z,8.73
2022-09-03T21:10:47.935Z,8.80
2022-09-03T21:13:54.070Z,8.77
2022-09-03T21:16:53.399Z,11.68
2022-09-03T21:19:56.458Z,11.73
2022-09-03T21:22:55.881Z,9.27
2022-09-03T21:28:40.740Z,9.35
2022-09-03T21:31:40.371Z,8.77
2022-09-03T21:34:39.413Z,7.82
2022-09-03T21:37:28.130Z,8.95
2022-09-03T21:40:19.907Z,11.48
2022-09-03T21:43:19.109Z,8.88
2022-09-03T21:46:27.797Z,11.10
2022-09-03T21:49:22.861Z,10.40
2022-09-03T21:52:24.345Z,10.32
2022-09-03T21:55:18.132Z,7.85
2022-09-03T21:58:19.000Z,8.25
2022-09-03T22:01:14.945Z,10.57
2022-09-03T22:04:02.285Z,9.50
2022-09-03T22:07:30.801Z,7.85
2022-09-03T22:10:52.713Z,7.50
2022-09-03T22:14:07.348Z,8.00
2022-09-03T22:16:59.393Z,10.07
2022-09-03T22:19:46.756Z,9.00
2022-09-03T22:22:48.945Z,12.27
2022-09-03T22:26:03.136Z,9.02
2022-09-03T22:29:15.226Z,10.60
2022-09-03T22:32:23.131Z,11.43
2022-09-03T22:35:25.597Z,11.38
2022-09-03T22:38:28.493Z,10.10
2022-09-03T22:41:53.917Z,11.70
2022-09-03T22:45:18.239Z,10.00
2022-09-03T22:48:11.499Z,11.60
2022-09-03T22:51:00.848Z,13.35
2022-09-03T22:54:18.181Z,10.27
2022-09-03T22:57:06.779Z,12.95
2022-09-03T23:00:04.917Z,9.17
2022-09-03T23:03:07.471Z,13.35
2022-09-03T23:06:07.680Z,8.77
2022-09-03T23:09:02.220Z,9.40
2022-09-03T23:11:52.981Z,10.38
2022-09-03T23:14:53.946Z,11.00
2022-09-03T23:17:49.834Z,10.02
2022-09-03T23:20:42.074Z,10.05
2022-09-03T23:23:37.305Z,10.10
2022-09-03T23:26:37.337Z,9.40
2022-09-03T23:29:32.556Z,10.10
2022-09-03T23:32:20.016Z,9.45
2022-09-03T23:35:17.719Z,9.88
2022-09-03T23:38:11.407Z,9.60
2022-09-03T23:41:04.039Z,9.10
2022-09-03T23:44:30.932Z,7.13
2022-09-03T23:47:32.980Z,10.57
2022-09-03T23:50:29.274Z,10.13
2022-09-03T23:53:31.595Z,12.95
2022-09-03T23:56:44.903Z,8.27
